»·PEaware :: N279MZ KSBP-KBFL

N279MZ :: KSBP-KBFL

FLIGHT INFORMATION

Flight Status: Arrived
Operator: Privately registered:
United States
More flights under this callsign
Pilot: Jari J. (4222)
Aircraft: CESSNA 172 SKYHAWK
(C172)
More flights by this aircraft type
Origin: KSBP San Luis Co Regl
United States
Destination: KBFL Meadows
United States
More flights between these airports :: More routes between these airports
Route: PRB V248 EHF
File this flight plan on PilotEdge
Remarks:
Altitude:
(Current/Filed)
7,000ft
Speed:
(Current/Filed)
120kts
Departed: 03-Aug-15 04:05 PM
Arrived: 03-Aug-15 05:01 PM
Distance/Time
Traveled:
79nm/0:56
Distance/Time
To Go:
Arrived

Flight Plot

Page will automatically refresh every two minutes.


Map Options




Map Legend


Flown Route
Filed Route
Departure Airport
Arrival Airport
Navaid (VOR, NDB)
Fix

Horizontal Profiles

Position Reports

Time Latitude Longitude Heading Altitude Ground
Speed
03-Aug-15 15:57 35.238121 -120.647810 88 215ft 0kts
03-Aug-15 15:58 35.238121 -120.647810 88 215ft 0kts
03-Aug-15 15:59 35.238121 -120.647810 88 215ft 0kts
03-Aug-15 16:00 35.238121 -120.647810 88 215ft 0kts
03-Aug-15 16:01 35.238121 -120.647808 87 215ft 0kts
03-Aug-15 16:02 35.238121 -120.647802 87 215ft 0kts
03-Aug-15 16:03 35.238122 -120.647797 87 215ft 0kts
03-Aug-15 16:04 35.238122 -120.647791 87 215ft 0kts
03-Aug-15 16:05 35.238122 -120.647785 87 215ft 0kts
03-Aug-15 16:06 35.238122 -120.647780 87 215ft 0kts
03-Aug-15 16:07 35.238122 -120.647774 87 215ft 0kts
03-Aug-15 16:08 35.238122 -120.647768 87 215ft 0kts
03-Aug-15 16:09 35.238047 -120.647181 119 215ft 7kts
03-Aug-15 16:10 35.237458 -120.644862 87 215ft 13kts
03-Aug-15 16:11 35.237769 -120.640138 97 215ft 19kts
03-Aug-15 16:12 35.234681 -120.634476 126 215ft 20kts
03-Aug-15 16:13 35.233322 -120.632523 217 215ft 0kts
03-Aug-15 16:14 35.233321 -120.632524 217 215ft 0kts
03-Aug-15 16:15 35.233830 -120.634799 305 230ft 34kts
03-Aug-15 16:16 35.240647 -120.647847 295 890ft 53kts
03-Aug-15 16:17 35.249697 -120.668397 303 1093ft 70kts
03-Aug-15 16:18 35.258514 -120.688345 302 1490ft 68kts
03-Aug-15 16:19 35.266917 -120.709707 292 1912ft 71kts
03-Aug-15 16:20 35.275591 -120.734914 300 2341ft 82kts
03-Aug-15 16:21 35.289239 -120.765396 303 2737ft 100kts
03-Aug-15 16:22 35.307030 -120.793844 306 3217ft 108kts
03-Aug-15 16:23 35.334165 -120.800879 5 3741ft 112kts
03-Aug-15 16:24 35.364078 -120.791747 31 4235ft 114kts
03-Aug-15 16:25 35.389528 -120.771067 34 4731ft 107kts
03-Aug-15 16:26 35.409169 -120.743590 48 5232ft 107kts
03-Aug-15 16:27 35.428444 -120.713564 56 5745ft 120kts
03-Aug-15 16:28 35.443749 -120.677958 66 6233ft 110kts
03-Aug-15 16:29 35.453988 -120.643489 73 6710ft 105kts
03-Aug-15 16:30 35.461650 -120.607430 78 6978ft 118kts
03-Aug-15 16:31 35.467748 -120.565090 82 6970ft 131kts
03-Aug-15 16:32 35.471931 -120.521449 85 6996ft 124kts
03-Aug-15 16:33 35.474657 -120.479036 86 6999ft 124kts
03-Aug-15 16:34 35.483628 -120.447105 45 7005ft 128kts
03-Aug-15 16:35 35.506972 -120.404494 54 6991ft 125kts
03-Aug-15 16:36 35.498986 -120.374213 131 6996ft 120kts
03-Aug-15 16:37 35.477297 -120.343257 131 7000ft 118kts
03-Aug-15 16:38 35.455677 -120.312514 131 7004ft 119kts
03-Aug-15 16:39 35.433699 -120.281124 131 7005ft 125kts
03-Aug-15 16:40 35.421645 -120.240891 90 7005ft 133kts
03-Aug-15 16:41 35.423781 -120.196497 85 7002ft 123kts
03-Aug-15 16:42 35.426370 -120.154520 85 7003ft 126kts
03-Aug-15 16:43 35.428952 -120.111839 85 7001ft 123kts
03-Aug-15 16:44 35.431589 -120.068107 85 7008ft 138kts
03-Aug-15 16:45 35.434290 -120.025261 85 6990ft 115kts
03-Aug-15 16:46 35.436803 -119.984893 85 6991ft 128kts
03-Aug-15 16:47 35.439422 -119.941398 85 6968ft 123kts
03-Aug-15 16:48 35.441933 -119.899049 86 6980ft 120kts
03-Aug-15 16:49 35.443700 -119.857333 86 6995ft 128kts
03-Aug-15 16:50 35.446141 -119.813906 86 6983ft 123kts
03-Aug-15 16:51 35.448708 -119.770142 86 6984ft 139kts
03-Aug-15 16:52 35.442993 -119.724137 104 6955ft 136kts
03-Aug-15 16:53 35.434230 -119.679359 104 6958ft 135kts
03-Aug-15 16:54 35.425928 -119.636565 104 6999ft 121kts
03-Aug-15 16:55 35.418370 -119.597163 104 6797ft 128kts
03-Aug-15 16:56 35.413111 -119.558013 113 6316ft 107kts
03-Aug-15 16:57 35.405613 -119.522013 103 5999ft 109kts
03-Aug-15 16:58 35.407294 -119.483741 84 5811ft 127kts
03-Aug-15 16:59 35.411049 -119.443532 83 5339ft 112kts
03-Aug-15 17:00 35.414854 -119.404238 83 4850ft 120kts
03-Aug-15 17:01 35.418925 -119.362492 82 4330ft 125kts
03-Aug-15 17:02 35.423018 -119.321468 82 3818ft 119kts
03-Aug-15 17:03 35.427298 -119.281366 82 3342ft 117kts
03-Aug-15 17:04 35.431395 -119.242168 82 2976ft 107kts
03-Aug-15 17:05 35.433292 -119.203734 90 2955ft 117kts
03-Aug-15 17:06 35.432171 -119.164297 97 2809ft 114kts
03-Aug-15 17:07 35.426705 -119.126125 100 2791ft 113kts
03-Aug-15 17:08 35.412313 -119.088144 120 1790ft 117kts
03-Aug-15 17:09 35.400058 -119.056242 81 1605ft 94kts
03-Aug-15 17:10 35.415607 -119.036214 343 882ft 71kts
03-Aug-15 17:11 35.427549 -119.048524 312 681ft 51kts
03-Aug-15 17:12 35.435265 -119.057802 316 510ft 12kts
03-Aug-15 17:13 35.435978 -119.058146 39 510ft 1kts
03-Aug-15 17:14 35.435789 -119.056279 135 510ft 7kts
03-Aug-15 17:15 35.436453 -119.054556 352 510ft 0kts
03-Aug-15 17:16 35.436453 -119.054556 352 510ft 0kts

Navigation Log

Ident Type
Flight plan parsing failed, navigation log unavailable